San Francisco, California
Traffic Map
Current Weather Conditions
San Francisco, California
Scattered Clouds
Scattered Clouds
13°
Feels Like: 13°
Wind Chill: 13° Ceiling: Unl
Heat Index: 13° Visibility: 10mi
Dew Point: 13° Wind: 5mph
Humidity: 100% Direction: 260° (W)
Pressure: 30.26in Gusts: 0mph
Raw Report DataKSFO 221356Z 26004KT 10SM FEW006 SCT016 13/13 A3026 RMK AO2 SLP247 T01330133
Traffic Incident Summary
Active as of:
Severity:
Category:
InformationThere was an issue retrieving the traffic information for this location. Please try a different location or try again shortly.
Advertisements
Track Severe Weather on mobile